Terminal Aerodrome Forecast
Issued by NWS

Home | Current Version | Previous Version | Text Only | Print | Product List | Glossary On
Versions: 1 2 3 4 5 6 7 8 9 10 11 12 13 14
549
FTUS44 KCRP 261423 AAA
TAFLRD
TAF AMD
KLRD 261423Z 2614/2712 09008KT P6SM BKN015
     FM261800 17005KT P6SM BKN050=

USA.gov is the U.S. government's official web portal to all federal, state and local government web resources and services.